createdAt,value
2022-08-23T00:02:25.756Z,5.55
2022-08-23T00:05:03.575Z,6.38
2022-08-23T00:07:38.249Z,5.40
2022-08-23T00:10:05.532Z,5.35
2022-08-23T00:12:32.028Z,5.03
2022-08-23T00:14:58.567Z,4.70
2022-08-23T00:17:31.099Z,5.20
2022-08-23T00:20:00.585Z,5.25
2022-08-23T00:22:27.083Z,4.32
2022-08-23T00:24:53.604Z,4.50
2022-08-23T00:27:20.121Z,4.55
2022-08-23T00:29:47.692Z,4.85
2022-08-23T00:32:15.549Z,4.70
2022-08-23T00:34:42.099Z,4.25
2022-08-23T00:37:08.849Z,5.05
2022-08-23T00:39:35.421Z,5.15
2022-08-23T00:42:28.943Z,4.72
2022-08-23T00:45:14.421Z,6.28
2022-08-23T00:47:41.459Z,6.32
2022-08-23T00:50:23.996Z,6.85
2022-08-23T00:53:02.996Z,5.65
2022-08-23T00:55:29.635Z,5.15
2022-08-23T00:57:56.241Z,5.60
2022-08-23T01:00:23.666Z,6.20
2022-08-23T01:02:50.166Z,6.82
2022-08-23T01:05:16.720Z,7.43
2022-08-23T01:07:48.213Z,5.88
2022-08-23T01:10:19.945Z,6.18
2022-08-23T01:12:49.579Z,5.50
2022-08-23T01:15:17.347Z,5.82
2022-08-23T01:17:48.593Z,6.05
2022-08-23T01:20:16.835Z,5.97
2022-08-23T01:22:58.129Z,5.53
2022-08-23T01:25:25.096Z,5.90
2022-08-23T01:27:51.661Z,5.10
2022-08-23T01:30:19.461Z,4.55
2022-08-23T01:32:47.504Z,4.30
2022-08-23T01:35:14.355Z,4.30
2022-08-23T01:37:41.927Z,4.30
2022-08-23T01:40:08.851Z,3.33
2022-08-23T01:42:35.474Z,3.80
2022-08-23T01:45:02.097Z,3.88
2022-08-23T01:47:28.767Z,3.10
2022-08-23T01:49:55.565Z,4.07
2022-08-23T01:52:22.135Z,3.00
2022-08-23T01:54:48.661Z,3.10
2022-08-23T01:57:15.374Z,3.38
2022-08-23T01:59:42.824Z,3.40
2022-08-23T02:02:09.336Z,4.00
2022-08-23T02:04:35.963Z,3.90
2022-08-23T02:07:02.979Z,3.35
2022-08-23T02:09:35.617Z,3.10
2022-08-23T02:12:02.231Z,3.08
2022-08-23T02:14:28.724Z,3.28
2022-08-23T02:17:03.983Z,3.75
2022-08-23T02:19:31.574Z,3.63
2022-08-23T02:21:58.571Z,3.60
2022-08-23T02:24:25.156Z,3.88
2022-08-23T02:26:56.453Z,4.03
2022-08-23T02:29:23.661Z,3.67
2022-08-23T02:31:50.299Z,3.83
2022-08-23T02:34:17.209Z,4.18
2022-08-23T02:36:44.130Z,3.90
2022-08-23T02:39:10.677Z,3.72
2022-08-23T02:41:38.009Z,3.38
2022-08-23T02:44:05.093Z,4.03
2022-08-23T02:46:31.607Z,5.18
2022-08-23T02:48:58.150Z,5.05
2022-08-23T02:51:24.727Z,5.10
2022-08-23T02:53:51.273Z,6.15
2022-08-23T02:56:21.853Z,5.72
2022-08-23T02:58:53.940Z,5.53
2022-08-23T03:01:28.781Z,5.38
2022-08-23T03:03:55.433Z,6.07
2022-08-23T03:06:24.555Z,6.75
2022-08-23T03:08:52.605Z,8.02
2022-08-23T03:11:20.989Z,7.47
2022-08-23T03:13:47.622Z,6.82
2022-08-23T03:16:14.366Z,7.80
2022-08-23T03:18:40.901Z,7.97
2022-08-23T03:21:07.686Z,8.02
2022-08-23T03:23:34.893Z,7.65
2022-08-23T03:26:01.631Z,8.50
2022-08-23T03:28:28.501Z,9.20
2022-08-23T03:30:55.015Z,8.43
2022-08-23T03:33:21.554Z,8.05
2022-08-23T03:35:48.226Z,7.80
2022-08-23T03:38:14.910Z,8.70
2022-08-23T03:40:41.797Z,8.82
2022-08-23T03:43:08.340Z,10.43
2022-08-23T03:45:34.868Z,10.27
2022-08-23T03:48:01.581Z,10.38
2022-08-23T03:50:28.286Z,13.05
2022-08-23T03:52:54.783Z,12.98
2022-08-23T03:55:21.377Z,12.20
2022-08-23T03:57:49.129Z,12.70
2022-08-23T04:00:20.314Z,11.02
2022-08-23T04:02:47.123Z,12.05
2022-08-23T04:05:13.646Z,12.30
2022-08-23T04:07:40.266Z,11.63
2022-08-23T04:10:07.531Z,13.02
2022-08-23T04:12:33.994Z,13.13
2022-08-23T04:15:02.347Z,14.60
2022-08-23T04:17:32.278Z,13.85
2022-08-23T04:19:59.452Z,12.18
2022-08-23T04:22:25.988Z,11.80
2022-08-23T04:24:52.496Z,12.00
2022-08-23T04:27:19.005Z,12.18
2022-08-23T04:29:45.558Z,11.82
2022-08-23T04:32:12.562Z,11.82
2022-08-23T04:34:45.654Z,12.60
2022-08-23T04:37:18.687Z,12.43
2022-08-23T04:40:04.065Z,12.35
2022-08-23T04:42:30.661Z,11.50
2022-08-23T04:44:57.703Z,11.75
2022-08-23T04:47:24.351Z,11.25
2022-08-23T04:49:50.835Z,11.13
2022-08-23T04:52:19.404Z,11.65
2022-08-23T04:54:46.918Z,10.38
2022-08-23T04:57:13.660Z,10.98
2022-08-23T04:59:40.136Z,11.85
2022-08-23T05:02:06.609Z,12.07
2022-08-23T05:04:33.124Z,11.38
2022-08-23T05:06:59.580Z,11.48
2022-08-23T05:09:27.202Z,12.13
2022-08-23T05:11:53.669Z,12.05
2022-08-23T05:14:20.214Z,11.82
2022-08-23T05:16:46.674Z,12.50
2022-08-23T05:19:13.188Z,11.85
2022-08-23T05:21:39.786Z,12.15
2022-08-23T05:24:06.296Z,13.65
2022-08-23T05:26:33.333Z,13.50
2022-08-23T05:28:59.844Z,11.95
2022-08-23T05:31:26.801Z,12.57
2022-08-23T05:33:53.324Z,13.68
2022-08-23T05:36:19.974Z,12.45
2022-08-23T05:38:49.662Z,13.77
2022-08-23T05:41:16.886Z,16.38
2022-08-23T05:43:43.397Z,14.85
2022-08-23T05:46:13.029Z,14.10
2022-08-23T05:48:40.218Z,13.88
2022-08-23T05:51:17.877Z,14.88
2022-08-23T05:53:44.515Z,14.20
2022-08-23T05:56:12.694Z,14.48
2022-08-23T05:58:39.344Z,14.65
2022-08-23T06:01:06.075Z,15.15
2022-08-23T06:03:32.619Z,13.43
2022-08-23T06:06:00.365Z,15.98
2022-08-23T06:08:27.100Z,17.35
2022-08-23T06:11:13.816Z,15.32
2022-08-23T06:13:41.499Z,13.10
2022-08-23T06:16:14.878Z,15.82
2022-08-23T06:18:42.144Z,15.77
2022-08-23T06:21:09.486Z,15.80
2022-08-23T06:23:36.319Z,16.75
2022-08-23T06:26:09.695Z,17.27
2022-08-23T06:28:50.304Z,15.95
2022-08-23T06:31:37.962Z,14.80
2022-08-23T06:34:04.674Z,16.83
2022-08-23T06:36:31.294Z,17.75
2022-08-23T06:39:01.238Z,17.88
2022-08-23T06:41:28.853Z,18.48
2022-08-23T06:43:55.509Z,17.25
2022-08-23T06:46:23.578Z,18.80
2022-08-23T06:48:50.392Z,17.55
2022-08-23T06:51:23.476Z,15.73
2022-08-23T06:53:50.611Z,19.13
2022-08-23T06:56:17.484Z,20.83
2022-08-23T06:58:44.052Z,20.15
2022-08-23T07:01:28.584Z,20.45
2022-08-23T07:03:57.268Z,22.58
2022-08-23T07:06:24.971Z,18.85
2022-08-23T07:08:51.608Z,16.98
2022-08-23T07:11:21.890Z,18.05
2022-08-23T07:13:50.400Z,24.17
2022-08-23T07:16:21.407Z,19.92
2022-08-23T07:18:53.058Z,21.23
2022-08-23T07:21:24.548Z,18.40
2022-08-23T07:23:51.705Z,18.45
2022-08-23T07:26:18.832Z,19.77
2022-08-23T07:28:45.744Z,17.88
2022-08-23T07:31:14.821Z,18.02
2022-08-23T07:33:41.727Z,18.10
2022-08-23T07:36:12.899Z,19.00
2022-08-23T07:38:40.933Z,16.63
2022-08-23T07:41:07.801Z,17.63
2022-08-23T07:43:34.496Z,17.25
2022-08-23T07:46:04.244Z,17.23
2022-08-23T07:48:52.483Z,16.17
2022-08-23T07:51:18.871Z,18.05
2022-08-23T07:53:48.447Z,17.58
2022-08-23T07:56:15.587Z,21.40
2022-08-23T07:58:42.258Z,18.95
2022-08-23T08:01:13.112Z,18.15
2022-08-23T08:03:39.727Z,17.88
2022-08-23T08:06:07.256Z,18.70
2022-08-23T08:08:33.896Z,18.00
2022-08-23T08:11:00.566Z,19.10
2022-08-23T08:13:27.512Z,18.08
2022-08-23T08:15:58.599Z,18.27
2022-08-23T08:18:25.624Z,20.65
2022-08-23T08:20:52.274Z,21.27
2022-08-23T08:23:18.965Z,20.25
2022-08-23T08:25:45.624Z,23.58
2022-08-23T08:28:15.924Z,19.92
2022-08-23T08:30:42.993Z,20.60
2022-08-23T08:33:09.748Z,20.98
2022-08-23T08:35:36.443Z,20.08
2022-08-23T08:38:09.167Z,19.63
2022-08-23T08:40:36.922Z,20.13
2022-08-23T08:43:07.462Z,20.27
2022-08-23T08:45:58.615Z,22.52
2022-08-23T08:48:25.654Z,21.85
2022-08-23T08:50:54.301Z,20.77
2022-08-23T08:53:25.445Z,19.52
2022-08-23T08:55:54.380Z,19.73
2022-08-23T08:58:29.948Z,17.70
2022-08-23T09:01:03.567Z,22.08
2022-08-23T09:03:33.110Z,19.60
2022-08-23T09:06:18.468Z,20.25
2022-08-23T09:08:53.310Z,20.33
2022-08-23T09:11:26.072Z,19.05
2022-08-23T09:14:08.296Z,20.92
2022-08-23T09:16:55.446Z,21.95
2022-08-23T09:19:22.870Z,21.50
2022-08-23T09:21:59.367Z,20.27
2022-08-23T09:24:26.108Z,19.38
2022-08-23T09:26:54.141Z,21.45
2022-08-23T09:29:40.025Z,21.77
2022-08-23T09:32:08.335Z,21.05
2022-08-23T09:34:42.531Z,22.23
2022-08-23T09:37:10.368Z,22.73
2022-08-23T09:39:38.082Z,20.45
2022-08-23T09:42:09.672Z,22.95
2022-08-23T09:44:40.034Z,20.48
2022-08-23T09:47:11.886Z,23.60
2022-08-23T09:49:39.581Z,23.75
2022-08-23T09:52:16.057Z,20.85
2022-08-23T09:54:55.916Z,21.00
2022-08-23T09:57:27.854Z,21.15
2022-08-23T09:59:56.625Z,21.83
2022-08-23T10:02:24.464Z,23.85
2022-08-23T10:04:59.308Z,24.13
2022-08-23T10:07:27.112Z,26.42
2022-08-23T10:09:56.402Z,23.27
2022-08-23T10:12:24.421Z,26.40
2022-08-23T10:14:52.077Z,25.42
2022-08-23T10:17:37.522Z,23.80
2022-08-23T10:20:12.365Z,26.92
2022-08-23T10:22:56.200Z,26.45
2022-08-23T10:25:43.058Z,25.98
2022-08-23T10:28:39.586Z,25.27
2022-08-23T10:31:06.336Z,24.92
2022-08-23T10:33:42.188Z,25.88
2022-08-23T10:36:11.829Z,25.00
2022-08-23T10:39:01.374Z,24.98
2022-08-23T10:41:40.458Z,25.73
2022-08-23T10:44:24.436Z,24.88
2022-08-23T10:47:12.569Z,25.05
2022-08-23T10:49:40.584Z,24.70
2022-08-23T10:52:14.208Z,24.05
2022-08-23T10:55:01.075Z,25.50
2022-08-23T10:57:34.456Z,24.58
2022-08-23T11:00:05.712Z,23.88
2022-08-23T11:02:35.323Z,25.27
2022-08-23T11:05:11.077Z,25.20
2022-08-23T11:07:49.836Z,23.35
2022-08-23T11:10:36.902Z,25.40
2022-08-23T11:13:15.016Z,24.77
2022-08-23T11:15:48.409Z,25.92
2022-08-23T11:18:48.517Z,27.35
2022-08-23T11:21:36.976Z,25.38
2022-08-23T11:24:03.748Z,24.42
2022-08-23T11:26:31.598Z,19.92
2022-08-23T11:29:15.261Z,26.05
2022-08-23T11:31:47.670Z,24.08
2022-08-23T11:34:30.905Z,27.33
2022-08-23T11:37:16.618Z,26.33
2022-08-23T11:40:02.186Z,25.25
2022-08-23T11:42:38.019Z,24.40
2022-08-23T11:45:24.959Z,25.35
2022-08-23T11:47:54.049Z,25.17
2022-08-23T11:50:25.215Z,25.88
2022-08-23T11:53:04.167Z,26.77
2022-08-23T11:55:30.997Z,25.65
2022-08-23T11:57:57.608Z,26.42
2022-08-23T12:00:29.079Z,25.00
2022-08-23T12:03:02.655Z,25.63
2022-08-23T12:05:39.011Z,25.85
2022-08-23T12:08:08.619Z,27.30
2022-08-23T12:10:53.970Z,26.17
2022-08-23T12:13:30.302Z,27.02
2022-08-23T12:16:16.964Z,26.73
2022-08-23T12:18:48.072Z,25.58
2022-08-23T12:21:27.448Z,25.58
2022-08-23T12:23:55.217Z,25.98
2022-08-23T12:26:40.813Z,25.60
2022-08-23T12:29:09.774Z,26.75
2022-08-23T12:31:44.582Z,26.25
2022-08-23T12:34:11.280Z,24.98
2022-08-23T12:36:38.462Z,25.85
2022-08-23T12:39:08.129Z,25.40
2022-08-23T12:41:54.359Z,24.92
2022-08-23T12:44:21.586Z,24.95
2022-08-23T12:46:48.540Z,23.73
2022-08-23T12:49:28.753Z,23.13
2022-08-23T12:51:55.897Z,25.00
2022-08-23T12:54:23.568Z,23.92
2022-08-23T12:56:51.294Z,25.67
2022-08-23T12:59:37.237Z,25.58
2022-08-23T13:02:05.565Z,25.42
2022-08-23T13:04:32.293Z,25.70
2022-08-23T13:07:00.439Z,25.38
2022-08-23T13:09:28.923Z,23.67
2022-08-23T13:11:58.151Z,24.48
2022-08-23T13:14:31.319Z,25.50
2022-08-23T13:17:12.623Z,24.05
2022-08-23T13:19:40.405Z,26.63
2022-08-23T13:22:11.079Z,23.98
2022-08-23T13:24:39.899Z,24.70
2022-08-23T13:27:14.571Z,23.38
2022-08-23T13:29:54.874Z,23.50
2022-08-23T13:32:29.059Z,22.95
2022-08-23T13:34:56.717Z,23.73
2022-08-23T13:37:25.749Z,23.23
2022-08-23T13:39:56.144Z,22.55
2022-08-23T13:42:51.270Z,21.83
2022-08-23T13:45:36.999Z,23.48
2022-08-23T13:48:23.114Z,20.23
2022-08-23T13:50:50.487Z,22.27
2022-08-23T13:53:17.219Z,22.88
2022-08-23T13:55:45.234Z,22.58
2022-08-23T13:58:12.772Z,22.75
2022-08-23T14:00:39.435Z,23.70
2022-08-23T14:03:12.447Z,21.60
2022-08-23T14:05:38.991Z,21.70
2022-08-23T14:08:05.541Z,21.65
2022-08-23T14:10:32.130Z,22.00
2022-08-23T14:12:59.843Z,20.20
2022-08-23T14:18:12.914Z,21.42
2022-08-23T14:20:46.481Z,19.98
2022-08-23T14:23:13.492Z,22.33
2022-08-23T14:25:40.148Z,21.77
2022-08-23T14:28:06.636Z,21.33
2022-08-23T14:30:33.786Z,20.55
2022-08-23T14:33:01.028Z,17.60
2022-08-23T14:35:27.746Z,23.33
2022-08-23T14:38:09.611Z,21.85
2022-08-23T14:40:36.318Z,22.88
2022-08-23T14:43:03.048Z,22.63
2022-08-23T14:45:29.643Z,22.88
2022-08-23T14:47:56.776Z,23.42
2022-08-23T14:50:23.404Z,21.52
2022-08-23T14:52:50.077Z,22.10
2022-08-23T14:55:16.577Z,22.73
2022-08-23T14:57:43.166Z,22.65
2022-08-23T15:00:13.835Z,22.38
2022-08-23T15:02:42.390Z,20.80
2022-08-23T15:05:09.091Z,21.73
2022-08-23T15:07:35.683Z,22.05
2022-08-23T15:10:02.179Z,23.48
2022-08-23T15:15:16.416Z,18.75
2022-08-23T15:17:49.327Z,21.52
2022-08-23T15:20:15.793Z,22.40
2022-08-23T15:22:44.924Z,22.27
2022-08-23T15:25:12.254Z,21.45
2022-08-23T15:27:38.765Z,20.88
2022-08-23T15:30:05.580Z,20.40
2022-08-23T15:32:32.522Z,20.80
2022-08-23T15:34:59.765Z,21.10
2022-08-23T15:37:26.271Z,17.50
2022-08-23T15:39:52.851Z,20.35
2022-08-23T15:42:20.362Z,20.15
2022-08-23T15:44:47.645Z,19.85
2022-08-23T15:47:17.030Z,20.20
2022-08-23T15:49:43.613Z,17.90
2022-08-23T15:52:10.079Z,18.85
2022-08-23T15:54:36.621Z,17.13
2022-08-23T15:57:03.166Z,19.05
2022-08-23T15:59:30.342Z,19.63
2022-08-23T16:01:56.891Z,18.88
2022-08-23T16:04:23.499Z,18.67
2022-08-23T16:06:50.134Z,21.17
2022-08-23T16:09:21.199Z,19.08
2022-08-23T16:11:47.818Z,19.55
2022-08-23T16:14:14.632Z,19.58
2022-08-23T16:16:41.462Z,18.05
2022-08-23T16:19:08.938Z,18.27
2022-08-23T16:21:35.632Z,18.45
2022-08-23T16:24:02.190Z,16.65
2022-08-23T16:26:35.382Z,17.98
2022-08-23T16:29:02.365Z,19.33
2022-08-23T16:31:38.232Z,18.38
2022-08-23T16:34:06.674Z,19.08
2022-08-23T16:36:33.236Z,18.30
2022-08-23T16:39:00.227Z,18.63
2022-08-23T16:41:27.055Z,17.65
2022-08-23T16:43:53.520Z,18.55
2022-08-23T16:46:25.183Z,19.20
2022-08-23T16:48:51.708Z,18.90
2022-08-23T16:51:19.123Z,18.80
2022-08-23T16:53:55.645Z,20.17
2022-08-23T16:56:29.926Z,18.63
2022-08-23T16:58:56.921Z,19.88
2022-08-23T17:01:23.464Z,19.23
2022-08-23T17:03:50.714Z,18.23
2022-08-23T17:06:17.289Z,19.00
2022-08-23T17:08:43.812Z,19.38
2022-08-23T17:11:10.668Z,19.75
2022-08-23T17:13:37.295Z,18.73
2022-08-23T17:16:03.950Z,19.38
2022-08-23T17:18:31.452Z,20.35
2022-08-23T17:20:57.982Z,19.63
2022-08-23T17:23:24.507Z,19.80
2022-08-23T17:25:51.042Z,19.85
2022-08-23T17:28:17.610Z,19.75
2022-08-23T17:30:44.192Z,19.48
2022-08-23T17:33:10.778Z,18.98
2022-08-23T17:35:39.248Z,18.88
2022-08-23T17:38:05.802Z,18.80
2022-08-23T17:40:33.657Z,19.23
2022-08-23T17:43:03.593Z,17.67
2022-08-23T17:45:31.993Z,17.52
2022-08-23T17:47:58.520Z,18.27
2022-08-23T17:50:25.602Z,19.08
2022-08-23T17:52:52.242Z,17.63
2022-08-23T17:55:19.454Z,18.02
2022-08-23T17:57:47.258Z,16.83
2022-08-23T18:00:15.250Z,17.75
2022-08-23T18:02:42.806Z,18.55
2022-08-23T18:05:10.577Z,16.30
2022-08-23T18:07:37.192Z,16.13
2022-08-23T18:10:09.686Z,17.65
2022-08-23T18:12:36.200Z,17.98
2022-08-23T18:15:04.550Z,17.67
2022-08-23T18:17:31.501Z,16.20
2022-08-23T18:19:59.119Z,17.02
2022-08-23T18:22:25.871Z,16.80
2022-08-23T18:24:55.517Z,16.35
2022-08-23T18:27:42.117Z,15.80
2022-08-23T18:30:09.225Z,16.67
2022-08-23T18:32:35.846Z,15.32
2022-08-23T18:35:02.436Z,16.58
2022-08-23T18:37:29.034Z,15.68
2022-08-23T18:39:58.065Z,16.88
2022-08-23T18:42:24.824Z,16.48
2022-08-23T18:44:51.495Z,15.73
2022-08-23T18:47:18.527Z,14.00
2022-08-23T18:49:45.303Z,15.73
2022-08-23T18:52:12.500Z,14.85
2022-08-23T18:54:39.311Z,14.27
2022-08-23T18:57:05.922Z,16.88
2022-08-23T18:59:32.588Z,16.67
2022-08-23T19:01:59.613Z,17.90
2022-08-23T19:04:26.310Z,15.40
2022-08-23T19:06:54.329Z,15.20
2022-08-23T19:09:21.176Z,16.42
2022-08-23T19:11:47.811Z,15.57
2022-08-23T19:14:14.487Z,15.88
2022-08-23T19:16:43.525Z,17.02
2022-08-23T19:19:14.091Z,15.45
2022-08-23T19:21:40.758Z,14.23
2022-08-23T19:24:07.372Z,14.85
2022-08-23T19:26:34.803Z,14.98
2022-08-23T19:29:01.588Z,14.27
2022-08-23T19:31:36.091Z,13.40
2022-08-23T19:34:05.645Z,13.73
2022-08-23T19:36:45.747Z,14.25
2022-08-23T19:39:13.454Z,12.82
2022-08-23T19:41:42.689Z,14.75
2022-08-23T19:44:10.631Z,14.80
2022-08-23T19:46:41.850Z,13.65
2022-08-23T19:49:10.378Z,13.63
2022-08-23T19:51:37.032Z,13.88
2022-08-23T19:54:05.040Z,12.90
2022-08-23T19:56:39.949Z,12.95
2022-08-23T19:59:07.696Z,13.25
2022-08-23T20:01:34.534Z,13.13
2022-08-23T20:04:01.556Z,12.90
2022-08-23T20:06:28.524Z,13.00
2022-08-23T20:08:55.301Z,13.00
2022-08-23T20:11:21.983Z,14.48
2022-08-23T20:13:49.687Z,13.55
2022-08-23T20:16:16.357Z,13.35
2022-08-23T20:18:43.172Z,13.43
2022-08-23T20:21:09.966Z,14.57
2022-08-23T20:26:52.505Z,14.85
2022-08-23T20:32:59.431Z,14.50
2022-08-23T20:39:12.539Z,17.08
2022-08-23T20:45:42.263Z,17.65
2022-08-23T20:52:18.450Z,16.63
2022-08-23T21:08:54.790Z,19.42
2022-08-23T21:25:54.408Z,21.20
2022-08-23T21:28:21.403Z,17.67
2022-08-23T21:30:48.147Z,16.98
2022-08-23T21:37:12.476Z,19.25
2022-08-23T21:43:52.241Z,19.17
2022-08-23T21:57:12.395Z,16.88
2022-08-23T22:10:21.203Z,16.73
2022-08-23T22:16:15.556Z,17.67
2022-08-23T22:22:10.656Z,19.55
2022-08-23T22:28:34.383Z,18.33
2022-08-23T22:38:17.598Z,19.05
2022-08-23T22:40:48.430Z,19.92
2022-08-23T22:43:15.802Z,19.35
2022-08-23T22:45:49.404Z,19.80
2022-08-23T22:48:15.946Z,20.52
2022-08-23T22:50:42.540Z,22.38
2022-08-23T22:53:22.573Z,21.65
2022-08-23T23:03:14.391Z,22.48
2022-08-23T23:17:36.459Z,21.55
2022-08-23T23:24:31.294Z,21.02
2022-08-23T23:26:57.898Z,22.65
2022-08-23T23:29:24.452Z,23.48
2022-08-23T23:32:21.127Z,24.05
2022-08-23T23:38:50.349Z,25.27
2022-08-23T23:45:10.370Z,24.98
2022-08-23T23:47:37.191Z,24.70
2022-08-23T23:50:04.450Z,21.42
2022-08-23T23:52:31.067Z,25.75
2022-08-23T23:54:57.681Z,22.77
